sensor_id;sensor_type;location;lat;lon;timestamp;temperature;humidity
4960;DHT22;2495;48.200;11.532;2023-02-15T00:01:17;3.80;83.20
4960;DHT22;2495;48.200;11.532;2023-02-15T00:24:30;3.70;82.80
4960;DHT22;2495;48.200;11.532;2023-02-15T00:29:34;3.60;83.00
4960;DHT22;2495;48.200;11.532;2023-02-15T00:34:36;3.60;81.90
4960;DHT22;2495;48.200;11.532;2023-02-15T00:39:37;3.50;82.30
4960;DHT22;2495;48.200;11.532;2023-02-15T00:44:38;3.40;82.30
4960;DHT22;2495;48.200;11.532;2023-02-15T00:49:40;3.30;82.50
4960;DHT22;2495;48.200;11.532;2023-02-15T00:54:41;3.30;82.30
4960;DHT22;2495;48.200;11.532;2023-02-15T00:59:43;3.20;82.20
4960;DHT22;2495;48.200;11.532;2023-02-15T01:04:45;3.20;82.60
4960;DHT22;2495;48.200;11.532;2023-02-15T01:09:46;3.30;84.00
4960;DHT22;2495;48.200;11.532;2023-02-15T01:14:48;3.40;82.80
4960;DHT22;2495;48.200;11.532;2023-02-15T01:19:49;3.30;82.40
4960;DHT22;2495;48.200;11.532;2023-02-15T01:24:51;3.40;83.20
4960;DHT22;2495;48.200;11.532;2023-02-15T01:29:52;3.40;83.00
4960;DHT22;2495;48.200;11.532;2023-02-15T01:34:54;3.30;82.20
4960;DHT22;2495;48.200;11.532;2023-02-15T01:39:55;3.10;82.30
4960;DHT22;2495;48.200;11.532;2023-02-15T01:44:58;2.80;82.10
4960;DHT22;2495;48.200;11.532;2023-02-15T01:50:18;2.70;83.40
4960;DHT22;2495;48.200;11.532;2023-02-15T01:55:20;2.70;84.90
4960;DHT22;2495;48.200;11.532;2023-02-15T05:32:59;2.80;83.60
4960;DHT22;2495;48.200;11.532;2023-02-15T05:38:01;2.80;83.10
4960;DHT22;2495;48.200;11.532;2023-02-15T05:43:02;2.90;82.60
4960;DHT22;2495;48.200;11.532;2023-02-15T05:48:03;2.90;82.80
4960;DHT22;2495;48.200;11.532;2023-02-15T05:53:05;2.90;82.70
4960;DHT22;2495;48.200;11.532;2023-02-15T05:58:06;2.90;81.80
4960;DHT22;2495;48.200;11.532;2023-02-15T06:03:07;2.80;82.10
4960;DHT22;2495;48.200;11.532;2023-02-15T06:08:09;2.90;83.10
4960;DHT22;2495;48.200;11.532;2023-02-15T06:13:34;2.90;82.90
4960;DHT22;2495;48.200;11.532;2023-02-15T06:51:16;3.10;83.80
4960;DHT22;2495;48.200;11.532;2023-02-15T07:01:56;3.20;83.80
4960;DHT22;2495;48.200;11.532;2023-02-15T07:07:02;3.20;83.80
4960;DHT22;2495;48.200;11.532;2023-02-15T07:12:03;3.30;83.10
4960;DHT22;2495;48.200;11.532;2023-02-15T07:17:23;3.30;83.20
4960;DHT22;2495;48.200;11.532;2023-02-15T07:22:24;3.40;83.00
4960;DHT22;2495;48.200;11.532;2023-02-15T07:27:35;3.30;82.70
4960;DHT22;2495;48.200;11.532;2023-02-15T07:33:01;3.30;83.40
4960;DHT22;2495;48.200;11.532;2023-02-15T07:38:24;3.40;83.30
4960;DHT22;2495;48.200;11.532;2023-02-15T07:43:25;3.60;83.10
4960;DHT22;2495;48.200;11.532;2023-02-15T07:48:44;3.60;82.20
4960;DHT22;2495;48.200;11.532;2023-02-15T07:53:44;3.70;82.50
4960;DHT22;2495;48.200;11.532;2023-02-15T07:58:45;3.80;82.50
4960;DHT22;2495;48.200;11.532;2023-02-15T08:03:53;3.70;82.70
4960;DHT22;2495;48.200;11.532;2023-02-15T08:08:53;3.80;83.20
4960;DHT22;2495;48.200;11.532;2023-02-15T08:13:56;3.90;83.20
4960;DHT22;2495;48.200;11.532;2023-02-15T08:18:57;3.90;82.80
4960;DHT22;2495;48.200;11.532;2023-02-15T08:23:58;4.00;83.00
4960;DHT22;2495;48.200;11.532;2023-02-15T08:29:00;4.10;83.10
4960;DHT22;2495;48.200;11.532;2023-02-15T08:34:02;4.10;82.70
4960;DHT22;2495;48.200;11.532;2023-02-15T08:39:04;4.10;82.50
4960;DHT22;2495;48.200;11.532;2023-02-15T08:44:05;4.10;82.90
4960;DHT22;2495;48.200;11.532;2023-02-15T08:49:06;4.20;82.90
4960;DHT22;2495;48.200;11.532;2023-02-15T08:54:08;4.30;82.60
4960;DHT22;2495;48.200;11.532;2023-02-15T08:59:16;4.30;82.50
4960;DHT22;2495;48.200;11.532;2023-02-15T09:04:28;4.50;82.90
4960;DHT22;2495;48.200;11.532;2023-02-15T09:09:37;4.90;83.90
4960;DHT22;2495;48.200;11.532;2023-02-15T09:15:38;5.10;82.40
4960;DHT22;2495;48.200;11.532;2023-02-15T09:20:39;5.30;82.10
4960;DHT22;2495;48.200;11.532;2023-02-15T09:25:40;5.40;81.00
4960;DHT22;2495;48.200;11.532;2023-02-15T09:30:42;5.40;80.50
4960;DHT22;2495;48.200;11.532;2023-02-15T09:35:43;5.40;80.40
4960;DHT22;2495;48.200;11.532;2023-02-15T09:40:49;5.40;80.30
4960;DHT22;2495;48.200;11.532;2023-02-15T09:45:53;5.40;80.90
4960;DHT22;2495;48.200;11.532;2023-02-15T09:50:54;5.40;80.60
4960;DHT22;2495;48.200;11.532;2023-02-15T09:56:22;5.40;80.80
4960;DHT22;2495;48.200;11.532;2023-02-15T10:17:55;6.00;80.50
4960;DHT22;2495;48.200;11.532;2023-02-15T10:28:53;6.60;81.40
4960;DHT22;2495;48.200;11.532;2023-02-15T10:45:49;7.00;78.70
4960;DHT22;2495;48.200;11.532;2023-02-15T10:50:49;7.10;78.60
4960;DHT22;2495;48.200;11.532;2023-02-15T11:01:25;7.70;78.70
4960;DHT22;2495;48.200;11.532;2023-02-15T11:06:23;8.50;77.00
4960;DHT22;2495;48.200;11.532;2023-02-15T11:11:26;9.20;75.40
4960;DHT22;2495;48.200;11.532;2023-02-15T11:16:28;9.30;73.60
4960;DHT22;2495;48.200;11.532;2023-02-15T11:21:34;9.60;73.10
4960;DHT22;2495;48.200;11.532;2023-02-15T11:26:36;10.90;72.20
4960;DHT22;2495;48.200;11.532;2023-02-15T11:36:49;11.80;67.60
4960;DHT22;2495;48.200;11.532;2023-02-15T11:42:00;13.30;63.70
4960;DHT22;2495;48.200;11.532;2023-02-15T11:47:11;14.60;60.00
4960;DHT22;2495;48.200;11.532;2023-02-15T11:52:12;15.60;57.50
4960;DHT22;2495;48.200;11.532;2023-02-15T11:57:24;15.70;56.30
4960;DHT22;2495;48.200;11.532;2023-02-15T12:02:23;14.90;57.10
4960;DHT22;2495;48.200;11.532;2023-02-15T12:07:26;15.20;56.40
4960;DHT22;2495;48.200;11.532;2023-02-15T12:12:30;15.30;56.20
4960;DHT22;2495;48.200;11.532;2023-02-15T12:17:34;15.60;55.80
4960;DHT22;2495;48.200;11.532;2023-02-15T12:22:37;15.70;54.90
4960;DHT22;2495;48.200;11.532;2023-02-15T12:27:39;15.30;54.90
4960;DHT22;2495;48.200;11.532;2023-02-15T12:32:53;15.50;55.60
4960;DHT22;2495;48.200;11.532;2023-02-15T12:37:53;17.20;51.90
4960;DHT22;2495;48.200;11.532;2023-02-15T12:42:54;18.40;49.10
4960;DHT22;2495;48.200;11.532;2023-02-15T12:48:15;19.60;49.10
4960;DHT22;2495;48.200;11.532;2023-02-15T12:53:19;19.80;46.10
4960;DHT22;2495;48.200;11.532;2023-02-15T12:58:29;20.30;45.10
4960;DHT22;2495;48.200;11.532;2023-02-15T13:03:29;21.10;42.60
4960;DHT22;2495;48.200;11.532;2023-02-15T13:08:31;20.30;44.30
4960;DHT22;2495;48.200;11.532;2023-02-15T13:13:33;19.50;45.10
4960;DHT22;2495;48.200;11.532;2023-02-15T13:18:34;19.00;45.90
4960;DHT22;2495;48.200;11.532;2023-02-15T13:23:34;19.00;45.60
4960;DHT22;2495;48.200;11.532;2023-02-15T13:28:58;18.10;45.90
4960;DHT22;2495;48.200;11.532;2023-02-15T13:44:49;15.40;52.60
4960;DHT22;2495;48.200;11.532;2023-02-15T13:55:30;13.60;55.50
4960;DHT22;2495;48.200;11.532;2023-02-15T14:06:00;13.10;56.80
4960;DHT22;2495;48.200;11.532;2023-02-15T14:21:53;12.10;59.80
4960;DHT22;2495;48.200;11.532;2023-02-15T14:27:13;11.80;60.70
4960;DHT22;2495;48.200;11.532;2023-02-15T14:32:25;11.70;61.40
4960;DHT22;2495;48.200;11.532;2023-02-15T14:42:56;11.80;62.90
4960;DHT22;2495;48.200;11.532;2023-02-15T14:47:56;12.10;60.80
4960;DHT22;2495;48.200;11.532;2023-02-15T14:53:18;11.30;61.30
4960;DHT22;2495;48.200;11.532;2023-02-15T14:58:17;11.30;61.30
4960;DHT22;2495;48.200;11.532;2023-02-15T15:03:20;11.00;61.80
4960;DHT22;2495;48.200;11.532;2023-02-15T15:08:28;10.70;64.20
4960;DHT22;2495;48.200;11.532;2023-02-15T15:13:35;11.60;63.60
4960;DHT22;2495;48.200;11.532;2023-02-15T15:18:45;12.40;60.60
4960;DHT22;2495;48.200;11.532;2023-02-15T15:23:46;11.60;60.30
4960;DHT22;2495;48.200;11.532;2023-02-15T15:45:08;10.10;65.10
4960;DHT22;2495;48.200;11.532;2023-02-15T15:50:22;10.10;65.30
4960;DHT22;2495;48.200;11.532;2023-02-15T15:55:27;10.30;66.10
4960;DHT22;2495;48.200;11.532;2023-02-15T16:00:35;10.50;64.10
4960;DHT22;2495;48.200;11.532;2023-02-15T16:05:50;9.90;64.50
4960;DHT22;2495;48.200;11.532;2023-02-15T16:10:52;9.30;66.00
4960;DHT22;2495;48.200;11.532;2023-02-15T16:15:53;8.70;66.10
4960;DHT22;2495;48.200;11.532;2023-02-15T16:20:58;8.30;67.90
4960;DHT22;2495;48.200;11.532;2023-02-15T16:26:21;8.10;69.00
4960;DHT22;2495;48.200;11.532;2023-02-15T16:31:24;7.70;70.60
4960;DHT22;2495;48.200;11.532;2023-02-15T16:36:25;7.50;70.70
4960;DHT22;2495;48.200;11.532;2023-02-15T16:41:28;7.30;71.20
4960;DHT22;2495;48.200;11.532;2023-02-15T16:46:34;7.30;71.70
4960;DHT22;2495;48.200;11.532;2023-02-15T16:51:43;7.30;72.50
4960;DHT22;2495;48.200;11.532;2023-02-15T16:56:44;7.20;72.00
4960;DHT22;2495;48.200;11.532;2023-02-15T17:01:45;7.00;72.10
4960;DHT22;2495;48.200;11.532;2023-02-15T17:07:03;6.90;72.90
4960;DHT22;2495;48.200;11.532;2023-02-15T17:12:08;6.80;74.30
4960;DHT22;2495;48.200;11.532;2023-02-15T17:17:15;6.80;74.00
4960;DHT22;2495;48.200;11.532;2023-02-15T17:22:21;6.70;74.50
4960;DHT22;2495;48.200;11.532;2023-02-15T17:27:27;6.80;75.30
4960;DHT22;2495;48.200;11.532;2023-02-15T17:32:30;6.70;75.10
4960;DHT22;2495;48.200;11.532;2023-02-15T17:42:37;6.60;75.90
4960;DHT22;2495;48.200;11.532;2023-02-15T17:47:39;6.40;75.90
4960;DHT22;2495;48.200;11.532;2023-02-15T17:52:40;6.40;77.20
4960;DHT22;2495;48.200;11.532;2023-02-15T17:57:42;6.70;76.70
4960;DHT22;2495;48.200;11.532;2023-02-15T18:02:43;6.50;76.20
4960;DHT22;2495;48.200;11.532;2023-02-15T18:08:17;6.40;76.80
4960;DHT22;2495;48.200;11.532;2023-02-15T18:13:35;6.40;77.60
4960;DHT22;2495;48.200;11.532;2023-02-15T18:18:37;6.20;76.90
4960;DHT22;2495;48.200;11.532;2023-02-15T18:23:39;6.30;77.10
4960;DHT22;2495;48.200;11.532;2023-02-15T18:28:43;6.40;78.00
4960;DHT22;2495;48.200;11.532;2023-02-15T18:33:44;6.40;77.80
4960;DHT22;2495;48.200;11.532;2023-02-15T18:38:49;6.40;76.80
4960;DHT22;2495;48.200;11.532;2023-02-15T18:43:54;6.30;77.00
4960;DHT22;2495;48.200;11.532;2023-02-15T21:04:25;5.40;81.40
4960;DHT22;2495;48.200;11.532;2023-02-15T21:09:27;5.40;81.50
4960;DHT22;2495;48.200;11.532;2023-02-15T21:14:40;5.40;80.50
4960;DHT22;2495;48.200;11.532;2023-02-15T21:19:43;5.50;80.60
4960;DHT22;2495;48.200;11.532;2023-02-15T21:24:44;5.50;81.10
4960;DHT22;2495;48.200;11.532;2023-02-15T21:29:52;5.50;80.50
4960;DHT22;2495;48.200;11.532;2023-02-15T21:35:03;5.50;80.40
4960;DHT22;2495;48.200;11.532;2023-02-15T21:40:26;5.40;80.50
4960;DHT22;2495;48.200;11.532;2023-02-15T21:45:27;5.30;81.50
4960;DHT22;2495;48.200;11.532;2023-02-15T21:50:48;5.40;80.60
4960;DHT22;2495;48.200;11.532;2023-02-15T21:56:10;5.40;80.40
4960;DHT22;2495;48.200;11.532;2023-02-15T22:01:27;5.20;80.80
4960;DHT22;2495;48.200;11.532;2023-02-15T22:06:28;5.30;82.10
4960;DHT22;2495;48.200;11.532;2023-02-15T22:11:30;5.40;81.00
4960;DHT22;2495;48.200;11.532;2023-02-15T22:16:32;5.30;80.40
4960;DHT22;2495;48.200;11.532;2023-02-15T22:22:38;5.30;81.10
4960;DHT22;2495;48.200;11.532;2023-02-15T22:27:34;5.30;81.60
4960;DHT22;2495;48.200;11.532;2023-02-15T22:32:34;5.30;80.70
4960;DHT22;2495;48.200;11.532;2023-02-15T22:37:42;5.50;82.20
4960;DHT22;2495;48.200;11.532;2023-02-15T22:42:51;5.80;81.30
4960;DHT22;2495;48.200;11.532;2023-02-15T22:47:56;5.80;80.30
4960;DHT22;2495;48.200;11.532;2023-02-15T22:53:00;5.60;80.00
4960;DHT22;2495;48.200;11.532;2023-02-15T22:58:02;5.40;81.40
4960;DHT22;2495;48.200;11.532;2023-02-15T23:03:13;5.40;81.80
4960;DHT22;2495;48.200;11.532;2023-02-15T23:08:17;5.60;82.10
4960;DHT22;2495;48.200;11.532;2023-02-15T23:13:33;5.60;80.80
4960;DHT22;2495;48.200;11.532;2023-02-15T23:18:42;5.40;80.70
4960;DHT22;2495;48.200;11.532;2023-02-15T23:23:41;5.20;80.70
4960;DHT22;2495;48.200;11.532;2023-02-15T23:28:41;5.10;80.40
4960;DHT22;2495;48.200;11.532;2023-02-15T23:57:39;4.60;82.30
